sensor_id;sensor_type;location;lat;lon;timestamp;P1;durP1;ratioP1;P2;durP2;ratioP2
4051;SDS011;2040;50.924;11.604;2023-09-07T00:01:53;8.00;;;5.60;;
4051;SDS011;2040;50.924;11.604;2023-09-07T00:04:19;8.80;;;5.17;;
4051;SDS011;2040;50.924;11.604;2023-09-07T00:06:46;11.40;;;4.87;;
4051;SDS011;2040;50.924;11.604;2023-09-07T00:09:11;21.83;;;5.17;;
4051;SDS011;2040;50.924;11.604;2023-09-07T00:11:38;8.40;;;5.23;;
4051;SDS011;2040;50.924;11.604;2023-09-07T00:14:03;8.60;;;5.50;;
4051;SDS011;2040;50.924;11.604;2023-09-07T00:16:32;8.20;;;5.40;;
4051;SDS011;2040;50.924;11.604;2023-09-07T00:19:00;8.60;;;4.73;;
4051;SDS011;2040;50.924;11.604;2023-09-07T00:21:27;8.00;;;4.93;;
4051;SDS011;2040;50.924;11.604;2023-09-07T00:23:52;10.47;;;5.60;;
4051;SDS011;2040;50.924;11.604;2023-09-07T00:26:20;9.10;;;5.63;;
4051;SDS011;2040;50.924;11.604;2023-09-07T00:28:45;8.80;;;5.07;;
4051;SDS011;2040;50.924;11.604;2023-09-07T00:31:11;11.53;;;6.87;;
4051;SDS011;2040;50.924;11.604;2023-09-07T00:33:36;11.23;;;5.47;;
4051;SDS011;2040;50.924;11.604;2023-09-07T00:36:02;10.40;;;6.03;;
4051;SDS011;2040;50.924;11.604;2023-09-07T00:38:28;18.50;;;6.83;;
4051;SDS011;2040;50.924;11.604;2023-09-07T00:40:54;10.73;;;5.57;;
4051;SDS011;2040;50.924;11.604;2023-09-07T00:43:20;12.13;;;6.57;;
4051;SDS011;2040;50.924;11.604;2023-09-07T00:45:45;8.17;;;5.50;;
4051;SDS011;2040;50.924;11.604;2023-09-07T00:48:15;13.70;;;6.50;;
4051;SDS011;2040;50.924;11.604;2023-09-07T00:50:43;11.50;;;6.53;;
4051;SDS011;2040;50.924;11.604;2023-09-07T00:53:10;10.20;;;6.40;;
4051;SDS011;2040;50.924;11.604;2023-09-07T00:55:36;8.27;;;6.47;;
4051;SDS011;2040;50.924;11.604;2023-09-07T00:58:03;9.40;;;6.67;;
4051;SDS011;2040;50.924;11.604;2023-09-07T01:00:32;10.87;;;6.37;;
4051;SDS011;2040;50.924;11.604;2023-09-07T01:02:58;11.23;;;5.90;;
4051;SDS011;2040;50.924;11.604;2023-09-07T01:05:39;9.23;;;5.80;;
4051;SDS011;2040;50.924;11.604;2023-09-07T01:08:13;9.20;;;5.33;;
4051;SDS011;2040;50.924;11.604;2023-09-07T01:10:44;9.53;;;5.30;;
4051;SDS011;2040;50.924;11.604;2023-09-07T01:13:09;7.07;;;5.17;;
4051;SDS011;2040;50.924;11.604;2023-09-07T01:15:35;6.93;;;5.57;;
4051;SDS011;2040;50.924;11.604;2023-09-07T01:18:02;10.00;;;5.50;;
4051;SDS011;2040;50.924;11.604;2023-09-07T01:20:28;9.17;;;5.40;;
4051;SDS011;2040;50.924;11.604;2023-09-07T01:22:56;12.43;;;5.90;;
4051;SDS011;2040;50.924;11.604;2023-09-07T01:25:23;10.63;;;5.77;;
4051;SDS011;2040;50.924;11.604;2023-09-07T01:27:48;12.37;;;6.20;;
4051;SDS011;2040;50.924;11.604;2023-09-07T01:30:15;9.93;;;6.10;;
4051;SDS011;2040;50.924;11.604;2023-09-07T01:32:41;7.10;;;5.57;;
4051;SDS011;2040;50.924;11.604;2023-09-07T01:35:07;8.00;;;5.97;;
4051;SDS011;2040;50.924;11.604;2023-09-07T01:37:35;10.27;;;6.10;;
4051;SDS011;2040;50.924;11.604;2023-09-07T01:40:01;10.27;;;6.40;;
4051;SDS011;2040;50.924;11.604;2023-09-07T01:42:29;8.30;;;5.60;;
4051;SDS011;2040;50.924;11.604;2023-09-07T01:44:55;16.73;;;7.30;;
4051;SDS011;2040;50.924;11.604;2023-09-07T01:47:20;10.03;;;6.40;;
4051;SDS011;2040;50.924;11.604;2023-09-07T01:49:46;11.30;;;6.30;;
4051;SDS011;2040;50.924;11.604;2023-09-07T01:52:11;11.17;;;6.90;;
4051;SDS011;2040;50.924;11.604;2023-09-07T01:54:37;9.63;;;6.30;;
4051;SDS011;2040;50.924;11.604;2023-09-07T01:57:03;9.80;;;6.87;;
4051;SDS011;2040;50.924;11.604;2023-09-07T01:59:28;10.43;;;6.07;;
4051;SDS011;2040;50.924;11.604;2023-09-07T02:01:54;10.47;;;7.20;;
4051;SDS011;2040;50.924;11.604;2023-09-07T02:04:19;9.63;;;5.87;;
4051;SDS011;2040;50.924;11.604;2023-09-07T02:06:45;8.93;;;6.00;;
4051;SDS011;2040;50.924;11.604;2023-09-07T02:09:10;7.80;;;5.77;;
4051;SDS011;2040;50.924;11.604;2023-09-07T02:11:36;10.13;;;6.57;;
4051;SDS011;2040;50.924;11.604;2023-09-07T02:14:01;8.27;;;5.67;;
4051;SDS011;2040;50.924;11.604;2023-09-07T02:16:27;13.50;;;7.10;;
4051;SDS011;2040;50.924;11.604;2023-09-07T02:19:00;14.83;;;7.07;;
4051;SDS011;2040;50.924;11.604;2023-09-07T02:21:28;11.83;;;6.17;;
4051;SDS011;2040;50.924;11.604;2023-09-07T02:23:54;11.60;;;6.90;;
4051;SDS011;2040;50.924;11.604;2023-09-07T02:26:20;13.23;;;7.70;;
4051;SDS011;2040;50.924;11.604;2023-09-07T02:28:45;10.97;;;6.60;;
4051;SDS011;2040;50.924;11.604;2023-09-07T02:31:11;10.57;;;6.50;;
4051;SDS011;2040;50.924;11.604;2023-09-07T02:33:36;12.60;;;7.20;;
4051;SDS011;2040;50.924;11.604;2023-09-07T02:36:02;14.93;;;6.70;;
4051;SDS011;2040;50.924;11.604;2023-09-07T02:38:28;10.60;;;6.40;;
4051;SDS011;2040;50.924;11.604;2023-09-07T02:40:54;14.50;;;6.27;;
4051;SDS011;2040;50.924;11.604;2023-09-07T02:43:20;11.13;;;6.60;;
4051;SDS011;2040;50.924;11.604;2023-09-07T02:45:47;10.00;;;5.93;;
4051;SDS011;2040;50.924;11.604;2023-09-07T02:48:13;9.90;;;6.07;;
4051;SDS011;2040;50.924;11.604;2023-09-07T02:50:39;8.97;;;5.23;;
4051;SDS011;2040;50.924;11.604;2023-09-07T02:53:05;6.70;;;5.37;;
4051;SDS011;2040;50.924;11.604;2023-09-07T02:55:31;14.93;;;5.57;;
4051;SDS011;2040;50.924;11.604;2023-09-07T02:57:56;8.50;;;5.10;;
4051;SDS011;2040;50.924;11.604;2023-09-07T03:00:22;8.50;;;5.50;;
4051;SDS011;2040;50.924;11.604;2023-09-07T03:02:49;8.57;;;5.30;;
4051;SDS011;2040;50.924;11.604;2023-09-07T03:05:15;8.97;;;5.97;;
4051;SDS011;2040;50.924;11.604;2023-09-07T03:07:41;10.80;;;5.57;;
4051;SDS011;2040;50.924;11.604;2023-09-07T03:10:07;10.90;;;5.30;;
4051;SDS011;2040;50.924;11.604;2023-09-07T03:12:33;11.67;;;6.90;;
4051;SDS011;2040;50.924;11.604;2023-09-07T03:14:59;9.00;;;5.43;;
4051;SDS011;2040;50.924;11.604;2023-09-07T03:17:28;10.47;;;6.23;;
4051;SDS011;2040;50.924;11.604;2023-09-07T03:19:54;8.43;;;5.50;;
4051;SDS011;2040;50.924;11.604;2023-09-07T03:22:19;8.90;;;5.00;;
4051;SDS011;2040;50.924;11.604;2023-09-07T03:24:45;8.53;;;6.10;;
4051;SDS011;2040;50.924;11.604;2023-09-07T03:27:10;9.10;;;6.10;;
4051;SDS011;2040;50.924;11.604;2023-09-07T03:29:36;9.37;;;5.43;;
4051;SDS011;2040;50.924;11.604;2023-09-07T03:32:02;9.77;;;5.93;;
4051;SDS011;2040;50.924;11.604;2023-09-07T03:34:28;9.73;;;6.40;;
4051;SDS011;2040;50.924;11.604;2023-09-07T03:36:53;8.87;;;5.63;;
4051;SDS011;2040;50.924;11.604;2023-09-07T03:39:19;18.73;;;5.20;;
4051;SDS011;2040;50.924;11.604;2023-09-07T03:41:47;8.40;;;5.17;;
4051;SDS011;2040;50.924;11.604;2023-09-07T03:44:13;14.83;;;6.30;;
4051;SDS011;2040;50.924;11.604;2023-09-07T03:46:38;8.77;;;6.40;;
4051;SDS011;2040;50.924;11.604;2023-09-07T03:49:04;8.70;;;5.60;;
4051;SDS011;2040;50.924;11.604;2023-09-07T03:51:29;7.90;;;5.30;;
4051;SDS011;2040;50.924;11.604;2023-09-07T03:53:55;9.60;;;5.70;;
4051;SDS011;2040;50.924;11.604;2023-09-07T03:56:21;9.47;;;5.10;;
4051;SDS011;2040;50.924;11.604;2023-09-07T03:58:46;8.10;;;5.67;;
4051;SDS011;2040;50.924;11.604;2023-09-07T04:01:12;14.10;;;5.50;;
4051;SDS011;2040;50.924;11.604;2023-09-07T04:03:39;10.30;;;5.57;;
4051;SDS011;2040;50.924;11.604;2023-09-07T04:06:05;12.03;;;5.50;;
4051;SDS011;2040;50.924;11.604;2023-09-07T04:08:31;12.53;;;4.80;;
4051;SDS011;2040;50.924;11.604;2023-09-07T04:10:57;10.43;;;5.50;;
4051;SDS011;2040;50.924;11.604;2023-09-07T04:13:22;9.23;;;5.83;;
4051;SDS011;2040;50.924;11.604;2023-09-07T04:15:48;12.07;;;5.70;;
4051;SDS011;2040;50.924;11.604;2023-09-07T04:18:14;12.70;;;6.27;;
4051;SDS011;2040;50.924;11.604;2023-09-07T04:20:42;7.20;;;5.33;;
4051;SDS011;2040;50.924;11.604;2023-09-07T04:23:08;11.73;;;6.53;;
4051;SDS011;2040;50.924;11.604;2023-09-07T04:25:34;9.50;;;6.37;;
4051;SDS011;2040;50.924;11.604;2023-09-07T04:28:00;17.90;;;6.03;;
4051;SDS011;2040;50.924;11.604;2023-09-07T04:30:26;13.90;;;6.30;;
4051;SDS011;2040;50.924;11.604;2023-09-07T04:32:52;10.60;;;6.00;;
4051;SDS011;2040;50.924;11.604;2023-09-07T04:35:17;11.20;;;6.80;;
4051;SDS011;2040;50.924;11.604;2023-09-07T04:37:43;10.70;;;5.83;;
4051;SDS011;2040;50.924;11.604;2023-09-07T04:40:10;7.47;;;5.60;;
4051;SDS011;2040;50.924;11.604;2023-09-07T04:42:36;7.20;;;5.03;;
4051;SDS011;2040;50.924;11.604;2023-09-07T04:45:04;10.80;;;5.47;;
4051;SDS011;2040;50.924;11.604;2023-09-07T04:47:30;14.80;;;7.07;;
4051;SDS011;2040;50.924;11.604;2023-09-07T04:49:55;9.10;;;6.13;;
4051;SDS011;2040;50.924;11.604;2023-09-07T04:52:21;7.20;;;5.03;;
4051;SDS011;2040;50.924;11.604;2023-09-07T04:54:47;8.40;;;5.00;;
4051;SDS011;2040;50.924;11.604;2023-09-07T04:57:13;10.80;;;5.73;;
4051;SDS011;2040;50.924;11.604;2023-09-07T04:59:41;10.27;;;6.30;;
4051;SDS011;2040;50.924;11.604;2023-09-07T05:02:06;7.90;;;5.40;;
4051;SDS011;2040;50.924;11.604;2023-09-07T05:04:32;9.07;;;6.27;;
4051;SDS011;2040;50.924;11.604;2023-09-07T05:06:57;11.20;;;6.20;;
4051;SDS011;2040;50.924;11.604;2023-09-07T05:09:23;13.63;;;6.20;;
4051;SDS011;2040;50.924;11.604;2023-09-07T05:11:50;9.87;;;5.50;;
4051;SDS011;2040;50.924;11.604;2023-09-07T05:14:16;10.93;;;6.60;;
4051;SDS011;2040;50.924;11.604;2023-09-07T05:16:44;10.87;;;5.47;;
4051;SDS011;2040;50.924;11.604;2023-09-07T05:19:10;11.63;;;6.60;;
4051;SDS011;2040;50.924;11.604;2023-09-07T05:21:35;8.70;;;5.80;;
4051;SDS011;2040;50.924;11.604;2023-09-07T05:24:01;10.90;;;6.00;;
4051;SDS011;2040;50.924;11.604;2023-09-07T05:26:27;8.33;;;5.90;;
4051;SDS011;2040;50.924;11.604;2023-09-07T05:28:53;9.33;;;6.13;;
4051;SDS011;2040;50.924;11.604;2023-09-07T05:31:18;11.07;;;5.97;;
4051;SDS011;2040;50.924;11.604;2023-09-07T05:33:44;13.67;;;5.43;;
4051;SDS011;2040;50.924;11.604;2023-09-07T05:36:09;9.90;;;5.77;;
4051;SDS011;2040;50.924;11.604;2023-09-07T05:38:35;11.20;;;6.47;;
4051;SDS011;2040;50.924;11.604;2023-09-07T05:41:01;15.20;;;6.20;;
4051;SDS011;2040;50.924;11.604;2023-09-07T05:43:27;16.80;;;6.10;;
4051;SDS011;2040;50.924;11.604;2023-09-07T05:45:52;7.40;;;5.40;;
4051;SDS011;2040;50.924;11.604;2023-09-07T05:48:18;13.40;;;6.50;;
4051;SDS011;2040;50.924;11.604;2023-09-07T05:50:44;10.57;;;6.63;;
4051;SDS011;2040;50.924;11.604;2023-09-07T05:53:09;10.63;;;6.80;;
4051;SDS011;2040;50.924;11.604;2023-09-07T05:55:35;9.13;;;6.77;;
4051;SDS011;2040;50.924;11.604;2023-09-07T05:58:04;12.93;;;6.57;;
4051;SDS011;2040;50.924;11.604;2023-09-07T06:00:30;12.97;;;6.10;;
4051;SDS011;2040;50.924;11.604;2023-09-07T06:02:56;9.37;;;6.10;;
4051;SDS011;2040;50.924;11.604;2023-09-07T06:05:22;11.50;;;6.47;;
4051;SDS011;2040;50.924;11.604;2023-09-07T06:07:47;9.10;;;6.20;;
4051;SDS011;2040;50.924;11.604;2023-09-07T06:10:13;10.40;;;6.63;;
4051;SDS011;2040;50.924;11.604;2023-09-07T06:12:39;12.10;;;6.50;;
4051;SDS011;2040;50.924;11.604;2023-09-07T06:15:05;11.23;;;6.50;;
4051;SDS011;2040;50.924;11.604;2023-09-07T06:17:31;13.00;;;7.10;;
4051;SDS011;2040;50.924;11.604;2023-09-07T06:19:57;9.33;;;6.00;;
4051;SDS011;2040;50.924;11.604;2023-09-07T06:22:22;10.63;;;6.77;;
4051;SDS011;2040;50.924;11.604;2023-09-07T06:24:48;16.23;;;8.33;;
4051;SDS011;2040;50.924;11.604;2023-09-07T06:27:14;10.10;;;6.63;;
4051;SDS011;2040;50.924;11.604;2023-09-07T06:29:40;10.03;;;6.43;;
4051;SDS011;2040;50.924;11.604;2023-09-07T06:32:05;13.27;;;7.63;;
4051;SDS011;2040;50.924;11.604;2023-09-07T06:34:31;12.90;;;7.53;;
4051;SDS011;2040;50.924;11.604;2023-09-07T06:36:57;13.17;;;7.60;;
4051;SDS011;2040;50.924;11.604;2023-09-07T06:39:22;11.37;;;6.87;;
4051;SDS011;2040;50.924;11.604;2023-09-07T06:41:48;22.17;;;8.10;;
4051;SDS011;2040;50.924;11.604;2023-09-07T06:44:14;13.53;;;7.47;;
4051;SDS011;2040;50.924;11.604;2023-09-07T06:46:40;29.33;;;7.90;;
4051;SDS011;2040;50.924;11.604;2023-09-07T06:49:05;13.87;;;7.33;;
4051;SDS011;2040;50.924;11.604;2023-09-07T06:51:31;19.20;;;7.90;;
4051;SDS011;2040;50.924;11.604;2023-09-07T06:53:57;16.53;;;6.30;;
4051;SDS011;2040;50.924;11.604;2023-09-07T06:56:23;20.83;;;7.03;;
4051;SDS011;2040;50.924;11.604;2023-09-07T06:58:49;13.13;;;7.93;;
4051;SDS011;2040;50.924;11.604;2023-09-07T07:01:14;15.93;;;7.87;;
4051;SDS011;2040;50.924;11.604;2023-09-07T07:03:41;22.53;;;7.67;;
4051;SDS011;2040;50.924;11.604;2023-09-07T07:06:07;16.13;;;7.07;;
4051;SDS011;2040;50.924;11.604;2023-09-07T07:08:32;11.83;;;6.63;;
4051;SDS011;2040;50.924;11.604;2023-09-07T07:10:58;9.87;;;7.40;;
4051;SDS011;2040;50.924;11.604;2023-09-07T07:13:24;11.20;;;6.83;;
4051;SDS011;2040;50.924;11.604;2023-09-07T07:15:49;9.90;;;6.33;;
4051;SDS011;2040;50.924;11.604;2023-09-07T07:18:15;13.60;;;7.83;;
4051;SDS011;2040;50.924;11.604;2023-09-07T07:20:41;9.80;;;6.20;;
4051;SDS011;2040;50.924;11.604;2023-09-07T07:23:08;9.63;;;6.07;;
4051;SDS011;2040;50.924;11.604;2023-09-07T07:25:35;14.43;;;6.27;;
4051;SDS011;2040;50.924;11.604;2023-09-07T07:28:02;9.60;;;6.63;;
4051;SDS011;2040;50.924;11.604;2023-09-07T07:30:31;13.70;;;7.43;;
4051;SDS011;2040;50.924;11.604;2023-09-07T07:32:58;10.07;;;5.90;;
4051;SDS011;2040;50.924;11.604;2023-09-07T07:35:24;9.57;;;6.90;;
4051;SDS011;2040;50.924;11.604;2023-09-07T07:37:49;8.80;;;6.50;;
4051;SDS011;2040;50.924;11.604;2023-09-07T07:40:15;11.43;;;6.23;;
4051;SDS011;2040;50.924;11.604;2023-09-07T07:42:43;14.37;;;6.77;;
4051;SDS011;2040;50.924;11.604;2023-09-07T07:45:09;10.40;;;6.80;;
4051;SDS011;2040;50.924;11.604;2023-09-07T07:47:35;11.80;;;7.03;;
4051;SDS011;2040;50.924;11.604;2023-09-07T07:50:00;9.67;;;6.27;;
4051;SDS011;2040;50.924;11.604;2023-09-07T07:52:28;10.83;;;6.20;;
4051;SDS011;2040;50.924;11.604;2023-09-07T07:54:54;8.53;;;6.00;;
4051;SDS011;2040;50.924;11.604;2023-09-07T07:57:20;8.37;;;5.93;;
4051;SDS011;2040;50.924;11.604;2023-09-07T07:59:45;7.47;;;5.50;;
4051;SDS011;2040;50.924;11.604;2023-09-07T08:02:11;15.57;;;6.50;;
4051;SDS011;2040;50.924;11.604;2023-09-07T08:04:36;9.83;;;6.70;;
4051;SDS011;2040;50.924;11.604;2023-09-07T08:07:02;11.60;;;6.77;;
4051;SDS011;2040;50.924;11.604;2023-09-07T08:09:32;11.20;;;6.30;;
4051;SDS011;2040;50.924;11.604;2023-09-07T08:11:59;9.03;;;6.53;;
4051;SDS011;2040;50.924;11.604;2023-09-07T08:14:27;10.37;;;6.47;;
4051;SDS011;2040;50.924;11.604;2023-09-07T08:16:53;12.83;;;6.33;;
4051;SDS011;2040;50.924;11.604;2023-09-07T08:19:19;11.57;;;6.27;;
4051;SDS011;2040;50.924;11.604;2023-09-07T08:21:45;9.00;;;5.43;;
4051;SDS011;2040;50.924;11.604;2023-09-07T08:24:11;7.73;;;5.60;;
4051;SDS011;2040;50.924;11.604;2023-09-07T08:26:37;9.60;;;5.70;;
4051;SDS011;2040;50.924;11.604;2023-09-07T08:29:03;7.23;;;5.53;;
4051;SDS011;2040;50.924;11.604;2023-09-07T08:31:33;9.90;;;5.43;;
4051;SDS011;2040;50.924;11.604;2023-09-07T08:34:00;12.70;;;6.03;;
4051;SDS011;2040;50.924;11.604;2023-09-07T08:36:28;13.37;;;5.23;;
4051;SDS011;2040;50.924;11.604;2023-09-07T08:38:57;11.13;;;5.90;;
4051;SDS011;2040;50.924;11.604;2023-09-07T08:41:26;10.60;;;5.23;;
4051;SDS011;2040;50.924;11.604;2023-09-07T08:43:52;6.70;;;4.80;;
4051;SDS011;2040;50.924;11.604;2023-09-07T08:46:19;6.87;;;5.27;;
4051;SDS011;2040;50.924;11.604;2023-09-07T08:48:48;9.23;;;5.63;;
4051;SDS011;2040;50.924;11.604;2023-09-07T08:51:18;6.37;;;4.53;;
4051;SDS011;2040;50.924;11.604;2023-09-07T08:53:44;9.03;;;5.00;;
4051;SDS011;2040;50.924;11.604;2023-09-07T08:56:11;7.20;;;4.63;;
4051;SDS011;2040;50.924;11.604;2023-09-07T08:58:38;10.13;;;4.70;;
4051;SDS011;2040;50.924;11.604;2023-09-07T09:01:07;6.73;;;4.37;;
4051;SDS011;2040;50.924;11.604;2023-09-07T09:03:36;10.67;;;5.57;;
4051;SDS011;2040;50.924;11.604;2023-09-07T09:06:03;8.00;;;5.03;;
4051;SDS011;2040;50.924;11.604;2023-09-07T09:08:40;10.07;;;5.40;;
4051;SDS011;2040;50.924;11.604;2023-09-07T09:11:07;9.37;;;5.20;;
4051;SDS011;2040;50.924;11.604;2023-09-07T09:13:33;12.03;;;5.30;;
4051;SDS011;2040;50.924;11.604;2023-09-07T09:15:59;8.40;;;4.73;;
4051;SDS011;2040;50.924;11.604;2023-09-07T09:18:26;9.53;;;5.63;;
4051;SDS011;2040;50.924;11.604;2023-09-07T09:20:53;7.53;;;4.83;;
4051;SDS011;2040;50.924;11.604;2023-09-07T09:23:19;9.00;;;5.47;;
4051;SDS011;2040;50.924;11.604;2023-09-07T09:25:47;15.00;;;4.80;;
4051;SDS011;2040;50.924;11.604;2023-09-07T09:28:13;8.77;;;5.43;;
4051;SDS011;2040;50.924;11.604;2023-09-07T09:30:39;6.63;;;4.40;;
4051;SDS011;2040;50.924;11.604;2023-09-07T09:33:08;6.77;;;5.17;;
4051;SDS011;2040;50.924;11.604;2023-09-07T09:35:35;10.60;;;5.47;;
4051;SDS011;2040;50.924;11.604;2023-09-07T09:38:06;6.50;;;4.23;;
4051;SDS011;2040;50.924;11.604;2023-09-07T09:40:32;6.97;;;5.57;;
4051;SDS011;2040;50.924;11.604;2023-09-07T09:42:59;10.57;;;6.10;;
4051;SDS011;2040;50.924;11.604;2023-09-07T09:45:27;8.50;;;4.87;;
4051;SDS011;2040;50.924;11.604;2023-09-07T09:47:53;13.90;;;5.80;;
4051;SDS011;2040;50.924;11.604;2023-09-07T09:50:21;7.90;;;4.70;;
4051;SDS011;2040;50.924;11.604;2023-09-07T09:52:47;9.10;;;4.90;;
4051;SDS011;2040;50.924;11.604;2023-09-07T09:55:13;7.77;;;4.60;;
4051;SDS011;2040;50.924;11.604;2023-09-07T09:57:42;17.17;;;5.33;;
4051;SDS011;2040;50.924;11.604;2023-09-07T10:00:08;6.63;;;4.50;;
4051;SDS011;2040;50.924;11.604;2023-09-07T10:03:10;8.70;;;4.70;;
4051;SDS011;2040;50.924;11.604;2023-09-07T10:05:39;8.17;;;5.03;;
4051;SDS011;2040;50.924;11.604;2023-09-07T10:08:09;6.23;;;4.40;;
4051;SDS011;2040;50.924;11.604;2023-09-07T10:10:36;6.80;;;4.60;;
4051;SDS011;2040;50.924;11.604;2023-09-07T10:13:03;5.53;;;4.23;;
4051;SDS011;2040;50.924;11.604;2023-09-07T10:15:29;10.40;;;4.70;;
4051;SDS011;2040;50.924;11.604;2023-09-07T10:18:12;8.83;;;4.87;;
4051;SDS011;2040;50.924;11.604;2023-09-07T10:23:20;5.97;;;4.63;;
4051;SDS011;2040;50.924;11.604;2023-09-07T10:25:51;6.87;;;5.17;;
4051;SDS011;2040;50.924;11.604;2023-09-07T10:28:18;7.00;;;4.67;;
4051;SDS011;2040;50.924;11.604;2023-09-07T10:30:44;9.40;;;4.80;;
4051;SDS011;2040;50.924;11.604;2023-09-07T10:33:20;8.00;;;4.50;;
4051;SDS011;2040;50.924;11.604;2023-09-07T10:35:46;6.20;;;4.77;;
4051;SDS011;2040;50.924;11.604;2023-09-07T10:38:15;8.40;;;4.50;;
4051;SDS011;2040;50.924;11.604;2023-09-07T10:40:41;4.40;;;4.00;;
4051;SDS011;2040;50.924;11.604;2023-09-07T10:43:10;5.10;;;3.60;;
4051;SDS011;2040;50.924;11.604;2023-09-07T10:45:35;5.53;;;4.13;;
4051;SDS011;2040;50.924;11.604;2023-09-07T10:48:01;7.30;;;4.53;;
4051;SDS011;2040;50.924;11.604;2023-09-07T10:50:29;5.20;;;3.60;;
4051;SDS011;2040;50.924;11.604;2023-09-07T10:52:54;7.80;;;4.10;;
4051;SDS011;2040;50.924;11.604;2023-09-07T10:55:20;6.10;;;3.70;;
4051;SDS011;2040;50.924;11.604;2023-09-07T10:57:46;6.83;;;3.80;;
4051;SDS011;2040;50.924;11.604;2023-09-07T11:00:13;6.10;;;3.67;;
4051;SDS011;2040;50.924;11.604;2023-09-07T11:02:40;4.43;;;2.90;;
4051;SDS011;2040;50.924;11.604;2023-09-07T11:05:07;5.50;;;3.70;;
4051;SDS011;2040;50.924;11.604;2023-09-07T11:07:35;5.90;;;3.33;;
4051;SDS011;2040;50.924;11.604;2023-09-07T11:10:01;5.63;;;3.27;;
4051;SDS011;2040;50.924;11.604;2023-09-07T11:12:30;6.17;;;3.43;;
4051;SDS011;2040;50.924;11.604;2023-09-07T11:15:00;7.10;;;3.70;;
4051;SDS011;2040;50.924;11.604;2023-09-07T11:17:28;4.23;;;2.90;;
4051;SDS011;2040;50.924;11.604;2023-09-07T11:19:53;3.30;;;3.00;;
4051;SDS011;2040;50.924;11.604;2023-09-07T11:22:19;5.60;;;3.00;;
4051;SDS011;2040;50.924;11.604;2023-09-07T11:24:46;7.23;;;3.20;;
4051;SDS011;2040;50.924;11.604;2023-09-07T11:27:11;5.30;;;3.10;;
4051;SDS011;2040;50.924;11.604;2023-09-07T11:29:37;3.73;;;2.80;;
4051;SDS011;2040;50.924;11.604;2023-09-07T11:32:10;8.03;;;3.80;;
4051;SDS011;2040;50.924;11.604;2023-09-07T11:34:47;4.10;;;2.90;;
4051;SDS011;2040;50.924;11.604;2023-09-07T11:37:17;3.67;;;2.83;;
4051;SDS011;2040;50.924;11.604;2023-09-07T11:39:47;4.63;;;2.87;;
4051;SDS011;2040;50.924;11.604;2023-09-07T11:42:13;2.90;;;2.53;;
4051;SDS011;2040;50.924;11.604;2023-09-07T11:44:39;4.10;;;3.17;;
4051;SDS011;2040;50.924;11.604;2023-09-07T11:47:04;7.83;;;3.10;;
4051;SDS011;2040;50.924;11.604;2023-09-07T11:49:30;4.93;;;3.47;;
4051;SDS011;2040;50.924;11.604;2023-09-07T11:51:57;5.30;;;3.10;;
4051;SDS011;2040;50.924;11.604;2023-09-07T11:54:22;3.60;;;2.87;;
4051;SDS011;2040;50.924;11.604;2023-09-07T11:56:48;4.63;;;3.03;;
4051;SDS011;2040;50.924;11.604;2023-09-07T11:59:13;4.23;;;2.73;;
4051;SDS011;2040;50.924;11.604;2023-09-07T12:01:40;3.43;;;2.70;;
4051;SDS011;2040;50.924;11.604;2023-09-07T12:04:06;4.53;;;3.20;;
4051;SDS011;2040;50.924;11.604;2023-09-07T12:06:32;4.00;;;2.83;;
4051;SDS011;2040;50.924;11.604;2023-09-07T12:08:58;4.23;;;2.60;;
4051;SDS011;2040;50.924;11.604;2023-09-07T12:11:25;3.97;;;2.90;;
4051;SDS011;2040;50.924;11.604;2023-09-07T12:13:50;4.13;;;3.17;;
4051;SDS011;2040;50.924;11.604;2023-09-07T12:16:16;4.97;;;2.90;;
4051;SDS011;2040;50.924;11.604;2023-09-07T12:18:41;6.47;;;3.50;;
4051;SDS011;2040;50.924;11.604;2023-09-07T12:21:07;3.93;;;3.13;;
4051;SDS011;2040;50.924;11.604;2023-09-07T12:23:33;4.60;;;3.33;;
4051;SDS011;2040;50.924;11.604;2023-09-07T12:26:01;5.37;;;3.13;;
4051;SDS011;2040;50.924;11.604;2023-09-07T12:28:29;4.20;;;3.13;;
4051;SDS011;2040;50.924;11.604;2023-09-07T12:30:55;3.80;;;3.27;;
4051;SDS011;2040;50.924;11.604;2023-09-07T12:33:21;7.40;;;3.80;;
4051;SDS011;2040;50.924;11.604;2023-09-07T12:35:46;3.10;;;2.20;;
4051;SDS011;2040;50.924;11.604;2023-09-07T12:38:12;6.37;;;3.60;;
4051;SDS011;2040;50.924;11.604;2023-09-07T12:40:42;4.63;;;2.90;;
4051;SDS011;2040;50.924;11.604;2023-09-07T12:43:08;5.00;;;3.17;;
4051;SDS011;2040;50.924;11.604;2023-09-07T12:45:34;3.70;;;2.97;;
4051;SDS011;2040;50.924;11.604;2023-09-07T12:48:00;5.93;;;2.80;;
4051;SDS011;2040;50.924;11.604;2023-09-07T12:50:27;4.27;;;2.90;;
4051;SDS011;2040;50.924;11.604;2023-09-07T12:52:52;4.07;;;3.13;;
4051;SDS011;2040;50.924;11.604;2023-09-07T12:55:19;3.80;;;2.47;;
4051;SDS011;2040;50.924;11.604;2023-09-07T12:57:45;3.80;;;2.97;;
4051;SDS011;2040;50.924;11.604;2023-09-07T13:00:11;5.43;;;2.93;;
4051;SDS011;2040;50.924;11.604;2023-09-07T13:02:37;3.53;;;2.70;;
4051;SDS011;2040;50.924;11.604;2023-09-07T13:05:03;4.73;;;3.30;;
4051;SDS011;2040;50.924;11.604;2023-09-07T13:07:32;4.20;;;2.67;;
4051;SDS011;2040;50.924;11.604;2023-09-07T13:09:59;4.23;;;3.07;;
4051;SDS011;2040;50.924;11.604;2023-09-07T13:12:28;3.60;;;3.20;;
4051;SDS011;2040;50.924;11.604;2023-09-07T13:14:54;7.57;;;3.60;;
4051;SDS011;2040;50.924;11.604;2023-09-07T13:17:20;3.90;;;3.23;;
4051;SDS011;2040;50.924;11.604;2023-09-07T13:19:46;3.97;;;3.10;;
4051;SDS011;2040;50.924;11.604;2023-09-07T13:22:13;6.27;;;3.73;;
4051;SDS011;2040;50.924;11.604;2023-09-07T13:24:39;4.40;;;3.60;;
4051;SDS011;2040;50.924;11.604;2023-09-07T13:27:04;6.40;;;3.87;;
4051;SDS011;2040;50.924;11.604;2023-09-07T13:29:31;12.10;;;2.90;;
4051;SDS011;2040;50.924;11.604;2023-09-07T13:31:57;5.30;;;3.13;;
4051;SDS011;2040;50.924;11.604;2023-09-07T13:34:23;5.23;;;3.10;;
4051;SDS011;2040;50.924;11.604;2023-09-07T13:36:49;9.07;;;3.07;;
4051;SDS011;2040;50.924;11.604;2023-09-07T13:39:15;6.60;;;3.30;;
4051;SDS011;2040;50.924;11.604;2023-09-07T13:41:40;5.17;;;2.90;;
4051;SDS011;2040;50.924;11.604;2023-09-07T13:44:06;7.40;;;3.10;;
4051;SDS011;2040;50.924;11.604;2023-09-07T13:46:32;4.20;;;2.70;;
4051;SDS011;2040;50.924;11.604;2023-09-07T13:48:58;7.23;;;2.93;;
4051;SDS011;2040;50.924;11.604;2023-09-07T13:51:24;3.80;;;2.83;;
4051;SDS011;2040;50.924;11.604;2023-09-07T13:53:51;7.40;;;3.20;;
4051;SDS011;2040;50.924;11.604;2023-09-07T13:56:19;5.90;;;2.93;;
4051;SDS011;2040;50.924;11.604;2023-09-07T13:58:45;5.43;;;2.80;;
4051;SDS011;2040;50.924;11.604;2023-09-07T14:01:11;5.10;;;2.90;;
4051;SDS011;2040;50.924;11.604;2023-09-07T14:03:37;3.93;;;2.73;;
4051;SDS011;2040;50.924;11.604;2023-09-07T14:06:02;4.30;;;3.00;;
4051;SDS011;2040;50.924;11.604;2023-09-07T14:08:28;4.20;;;3.07;;
4051;SDS011;2040;50.924;11.604;2023-09-07T14:10:55;4.20;;;2.63;;
4051;SDS011;2040;50.924;11.604;2023-09-07T14:13:21;4.30;;;2.90;;
4051;SDS011;2040;50.924;11.604;2023-09-07T14:15:46;14.43;;;2.80;;
4051;SDS011;2040;50.924;11.604;2023-09-07T14:18:12;3.57;;;2.37;;
4051;SDS011;2040;50.924;11.604;2023-09-07T14:20:37;5.20;;;2.63;;
4051;SDS011;2040;50.924;11.604;2023-09-07T14:23:03;2.67;;;2.47;;
4051;SDS011;2040;50.924;11.604;2023-09-07T14:25:29;4.43;;;2.70;;
4051;SDS011;2040;50.924;11.604;2023-09-07T14:27:55;2.43;;;2.00;;
4051;SDS011;2040;50.924;11.604;2023-09-07T14:30:21;2.67;;;2.33;;
4051;SDS011;2040;50.924;11.604;2023-09-07T14:32:46;13.47;;;3.20;;
4051;SDS011;2040;50.924;11.604;2023-09-07T14:35:13;4.10;;;2.73;;
4051;SDS011;2040;50.924;11.604;2023-09-07T14:37:42;2.43;;;2.20;;
4051;SDS011;2040;50.924;11.604;2023-09-07T14:40:08;4.20;;;3.03;;
4051;SDS011;2040;50.924;11.604;2023-09-07T14:42:34;5.30;;;3.00;;
4051;SDS011;2040;50.924;11.604;2023-09-07T14:44:59;3.90;;;2.60;;
4051;SDS011;2040;50.924;11.604;2023-09-07T14:47:28;8.07;;;3.20;;
4051;SDS011;2040;50.924;11.604;2023-09-07T14:49:54;3.07;;;2.33;;
4051;SDS011;2040;50.924;11.604;2023-09-07T14:52:19;6.13;;;3.00;;
4051;SDS011;2040;50.924;11.604;2023-09-07T14:54:47;5.00;;;2.90;;